Time;durP1;ratioP1;P1;durP2;ratioP2;P2;SDS_P1;SDS_P2;PMS_P1;PMS_P2;Temp;Humidity;BMP_temperature;BMP_pressure;BME280_temperature;BME280_humidity;BME280_pressure;Samples;Min_cycle;Max_cycle;Signal;HPM_P1;HPM_P2
2022/06/10 00:01:50;;;;;;;5.40;1.60;;;;;;;13.71;100.00;102021.84;5055828;28;20468;-69
2022/06/10 00:04:15;;;;;;;6.00;1.33;;;;;;;13.95;100.00;102053.00;5058241;28;20193;-70
2022/06/10 00:06:40;;;;;;;5.10;1.37;;;;;;;13.89;100.00;102055.63;5055281;28;20194;-70
2022/06/10 00:09:06;;;;;;;7.87;1.70;;;;;;;13.70;100.00;102012.06;5056859;28;20541;-70
2022/06/10 00:11:31;;;;;;;5.77;2.00;;;;;;;13.62;100.00;101982.53;5056396;28;20202;-70
2022/06/10 00:13:56;;;;;;;3.30;1.10;;;;;;;13.56;100.00;101967.13;5057641;28;20187;-70
2022/06/10 00:16:23;;;;;;;5.30;1.33;;;;;;;13.68;100.00;101984.47;5058723;28;20253;-70
2022/06/10 00:18:49;;;;;;;4.57;1.30;;;;;;;12.03;100.00;101728.34;5059444;28;20203;-70
2022/06/10 00:21:17;;;;;;;4.07;1.30;;;;;;;14.06;100.00;102046.28;5056468;28;21026;-69
2022/06/10 00:23:43;;;;;;;3.57;1.33;;;;;;;13.28;100.00;101927.44;5056411;28;20456;-70
2022/06/10 00:26:09;;;;;;;4.57;1.87;;;;;;;13.23;100.00;101940.59;5059597;28;20914;-70
2022/06/10 00:28:34;;;;;;;4.60;1.37;;;;;;;13.94;100.00;102032.47;5061773;28;20187;-71
2022/06/10 00:31:01;;;;;;;4.23;1.17;;;;;;;13.58;100.00;101994.72;5062280;28;20445;-71
2022/06/10 00:33:27;;;;;;;4.30;1.30;;;;;;;13.25;100.00;101933.22;5060128;28;20192;-71
2022/06/10 00:35:53;;;;;;;5.90;1.57;;;;;;;11.88;100.00;101720.28;5056890;28;20472;-71
2022/06/10 00:38:19;;;;;;;4.07;1.30;;;;;;;13.95;100.00;102054.88;5055459;28;20550;-71
2022/06/10 00:40:51;;;;;;;5.37;1.13;;;;;;;13.94;100.00;102056.72;5064167;28;20461;-71
2022/06/10 00:43:20;;;;;;;2.70;1.43;;;;;;;13.47;100.00;101973.66;5053174;28;20940;-71
2022/06/10 00:46:05;;;;;;;3.90;1.20;;;;;;;13.14;100.00;101914.81;5054884;28;20530;-72
2022/06/10 00:48:36;;;;;;;4.80;1.40;;;;;;;13.80;100.00;102038.75;5054322;28;20441;-70
2022/06/10 00:51:36;;;;;;;4.20;1.40;;;;;;;13.64;100.00;102014.69;5057102;28;20468;-70
2022/06/10 00:54:33;;;;;;;4.20;1.20;;;;;;;13.76;100.00;102037.44;5040938;28;20438;-70
2022/06/10 00:57:17;;;;;;;3.50;1.20;;;;;;;13.79;100.00;102037.88;5054024;28;20442;-71
2022/06/10 00:59:47;;;;;;;5.20;1.47;;;;;;;13.67;100.00;102017.00;5053253;28;20436;-71
2022/06/10 01:02:16;;;;;;;5.10;1.27;;;;;;;13.78;100.00;102046.19;5055585;28;20465;-71
2022/06/10 01:04:42;;;;;;;5.43;1.40;;;;;;;13.33;100.00;101984.28;5056980;28;20468;-71
2022/06/10 01:07:11;;;;;;;5.20;1.23;;;;;;;13.24;100.00;101963.00;5054268;28;20532;-71
2022/06/10 01:09:38;;;;;;;3.47;1.20;;;;;;;13.70;100.00;102047.13;5056236;28;20446;-71
2022/06/10 01:12:35;;;;;;;4.80;1.30;;;;;;;13.45;100.00;101997.25;5056095;28;20515;-71
2022/06/10 01:15:25;;;;;;;5.20;1.40;;;;;;;13.25;100.00;101954.75;5056655;28;20894;-71
2022/06/10 01:18:02;;;;;;;5.80;1.23;;;;;;;13.02;100.00;101936.00;5055054;28;20440;-71
2022/06/10 01:20:31;;;;;;;3.30;1.23;;;;;;;13.70;100.00;102036.34;5055794;28;20469;-71
2022/06/10 01:23:09;;;;;;;5.00;1.27;;;;;;;13.70;100.00;102039.03;5054682;28;20441;-71
2022/06/10 01:25:34;;;;;;;3.47;1.40;;;;;;;13.73;100.00;102043.22;5055768;28;20456;-71
2022/06/10 01:28:12;;;;;;;5.67;1.13;;;;;;;13.68;100.00;102046.50;5056080;28;20469;-70
2022/06/10 01:31:10;;;;;;;4.80;1.50;;;;;;;13.49;100.00;102020.97;5050833;28;20211;-70
2022/06/10 01:33:39;;;;;;;5.40;1.53;;;;;;;13.65;100.00;102041.44;5052507;28;20517;-70
2022/06/10 01:36:26;;;;;;;3.93;1.20;;;;;;;13.62;100.00;102036.44;5056186;28;20843;-70
2022/06/10 01:39:07;;;;;;;3.13;1.30;;;;;;;13.62;100.00;102039.13;5053564;28;20793;-70
2022/06/10 01:41:44;;;;;;;3.80;1.63;;;;;;;13.19;100.00;101951.94;5054701;28;20445;-70
2022/06/10 01:44:21;;;;;;;5.90;1.30;;;;;;;13.65;100.00;102025.28;5055072;28;20437;-71
2022/06/10 01:47:07;;;;;;;6.50;1.37;;;;;;;13.42;100.00;102014.63;5053452;28;20448;-70
2022/06/10 01:50:08;;;;;;;2.80;1.10;;;;;;;13.55;100.00;102028.28;5051792;28;20433;-70
2022/06/10 01:52:45;;;;;;;10.40;2.10;;;;;;;13.16;100.00;101985.47;5036387;28;20434;-71
2022/06/10 01:55:31;;;;;;;3.63;1.17;;;;;;;13.49;100.00;102036.31;5054668;28;21041;-71
2022/06/10 01:58:04;;;;;;;6.97;1.30;;;;;;;13.27;100.00;102025.44;5056786;28;20849;-71
2022/06/10 02:00:32;;;;;;;6.30;1.70;;;;;;;13.35;100.00;102040.69;5057802;28;20457;-71
2022/06/10 02:03:21;;;;;;;4.10;1.20;;;;;;;13.32;100.00;102019.50;5052133;28;20625;-71
2022/06/10 02:05:53;;;;;;;6.60;1.50;;;;;;;13.29;100.00;102036.88;5049758;28;20429;-71
2022/06/10 02:08:27;;;;;;;5.43;2.43;;;;;;;13.24;100.00;102024.97;5052891;28;20962;-71
2022/06/10 02:11:10;;;;;;;5.90;2.40;;;;;;;13.29;100.00;102046.81;5051020;28;20825;-71
2022/06/10 02:13:54;;;;;;;6.80;2.50;;;;;;;13.22;100.00;102046.72;5068561;28;20433;-71
2022/06/10 02:16:26;;;;;;;6.13;1.70;;;;;;;13.25;100.00;102042.78;5050547;28;20462;-71
2022/06/10 02:19:00;;;;;;;5.50;1.93;;;;;;;13.03;100.00;102034.63;5054888;28;21514;-71
2022/06/10 02:21:38;;;;;;;6.43;1.80;;;;;;;12.89;100.00;102006.66;5054787;28;20464;-71
2022/06/10 02:24:23;;;;;;;5.33;1.80;;;;;;;12.46;100.00;101932.94;5052608;28;20448;-71
2022/06/10 02:26:51;;;;;;;4.10;2.10;;;;;;;13.18;100.00;102040.00;5051788;28;20950;-71
2022/06/10 02:29:29;;;;;;;8.33;2.20;;;;;;;12.61;100.00;101965.25;5055891;28;20894;-71
2022/06/10 02:31:57;;;;;;;6.40;1.67;;;;;;;13.24;100.00;102054.59;5053575;28;20449;-71
2022/06/10 02:34:24;;;;;;;5.43;2.03;;;;;;;13.15;100.00;102053.84;5053808;28;20433;-71
2022/06/10 02:37:19;;;;;;;3.73;1.70;;;;;;;13.15;100.00;102056.56;5055352;28;20842;-71
2022/06/10 02:39:59;;;;;;;5.70;2.00;;;;;;;13.04;100.00;102062.41;5053022;28;20798;-70
2022/06/10 02:42:38;;;;;;;8.30;2.40;;;;;;;12.72;100.00;102005.19;5051294;28;20746;-71
2022/06/10 02:45:20;;;;;;;7.70;1.83;;;;;;;12.96;100.00;102073.25;5051770;28;20429;-70
2022/06/10 02:47:53;;;;;;;4.87;1.93;;;;;;;12.95;100.00;102068.91;5055855;28;20443;-71
2022/06/10 02:50:19;;;;;;;5.43;2.07;;;;;;;12.78;100.00;102025.97;5056574;28;20899;-71
2022/06/10 02:52:46;;;;;;;8.80;2.10;;;;;;;12.98;100.00;102063.13;5052992;28;20518;-71
2022/06/10 02:55:19;;;;;;;6.30;2.03;;;;;;;11.98;100.00;101895.63;5054750;28;20223;-70
2022/06/10 03:01:16;;;;;;;7.60;1.80;;;;;;;12.78;100.00;102039.44;5057571;28;20551;-71
2022/06/10 03:03:51;;;;;;;5.23;1.83;;;;;;;13.02;100.00;102067.16;5046474;28;20952;-73
2022/06/10 03:06:25;;;;;;;6.93;1.83;;;;;;;13.01;100.00;102068.16;5058145;28;20429;-71
2022/06/10 03:09:09;;;;;;;6.83;2.10;;;;;;;12.99;100.00;102075.56;5055255;28;20440;-71
2022/06/10 03:11:47;;;;;;;7.63;1.87;;;;;;;12.86;100.00;102047.44;5058139;28;20884;-71
2022/06/10 03:14:43;;;;;;;5.30;2.20;;;;;;;12.96;100.00;102084.03;5055471;28;20440;-71
2022/06/10 03:17:29;;;;;;;9.10;1.73;;;;;;;12.99;100.00;102086.34;5054400;28;20437;-71
2022/06/10 03:20:18;;;;;;;4.80;2.00;;;;;;;13.05;100.00;102077.56;5055565;28;20529;-71
2022/06/10 03:23:05;;;;;;;5.07;1.90;;;;;;;13.00;100.00;102080.78;5072805;22;20426;-69
2022/06/10 03:25:41;;;;;;;6.83;2.30;;;;;;;12.96;100.00;102084.88;4959810;28;20450;-68
2022/06/10 03:28:31;;;;;;;3.83;2.00;;;;;;;13.06;100.00;102080.06;4961585;28;20537;-68
2022/06/10 03:31:05;;;;;;;5.37;2.00;;;;;;;12.81;100.00;102066.00;4959195;28;20465;-68
2022/06/10 03:33:59;;;;;;;4.80;2.10;;;;;;;12.92;100.00;102070.09;4958170;28;20468;-69
2022/06/10 03:36:27;;;;;;;4.90;2.00;;;;;;;12.82;100.00;102054.22;4956290;28;20959;-69
2022/06/10 03:38:54;;;;;;;5.57;1.77;;;;;;;12.90;100.00;102085.59;4955315;28;20450;-68
2022/06/10 03:41:22;;;;;;;7.70;2.20;;;;;;;12.98;100.00;102090.06;4957026;28;20474;-68
2022/06/10 03:43:50;;;;;;;7.33;2.13;;;;;;;12.88;100.00;102076.88;4954170;28;20520;-69
2022/06/10 03:46:18;;;;;;;11.03;2.57;;;;;;;12.99;100.00;102089.91;4954137;28;20452;-69
2022/06/10 03:48:47;;;;;;;5.13;1.87;;;;;;;12.89;100.00;102090.16;4958606;28;20784;-69
2022/06/10 03:51:14;;;;;;;5.80;1.90;;;;;;;12.79;100.00;102053.75;4957706;28;20996;-68
2022/06/10 03:53:40;;;;;;;8.60;1.77;;;;;;;12.70;100.00;102028.78;4956856;28;20573;-69
2022/06/10 03:56:05;;;;;;;4.40;1.80;;;;;;;13.04;100.00;102079.38;4953242;28;21045;-68
2022/06/10 03:58:31;;;;;;;4.93;2.07;;;;;;;12.78;100.00;102034.06;4955087;28;20226;-67
2022/06/10 04:00:58;;;;;;;5.40;2.20;;;;;;;13.14;100.00;102089.91;4955120;28;20183;-68
2022/06/10 04:03:23;;;;;;;3.03;1.83;;;;;;;13.11;100.00;102087.59;4950514;28;20211;-68
2022/06/10 04:05:49;;;;;;;6.20;2.10;;;;;;;13.11;100.00;102091.13;4952798;28;20475;-68
2022/06/10 04:08:14;;;;;;;8.20;2.83;;;;;;;13.21;100.00;102093.53;4949514;28;20270;-68
2022/06/10 04:10:39;;;;;;;4.77;2.10;;;;;;;13.25;100.00;102092.19;4949452;28;20742;-68
2022/06/10 04:13:06;;;;;;;5.90;2.17;;;;;;;13.16;100.00;102097.78;4947148;28;20430;-68
2022/06/10 04:15:32;;;;;;;4.67;1.67;;;;;;;13.24;100.00;102097.69;4952462;28;20210;-68
2022/06/10 04:17:58;;;;;;;5.30;2.23;;;;;;;13.22;100.00;102105.13;4953913;28;20469;-68
2022/06/10 04:20:35;;;;;;;5.40;2.13;;;;;;;13.31;100.00;102099.50;4952564;28;20270;-68
2022/06/10 04:23:02;;;;;;;6.87;2.23;;;;;;;13.39;100.00;102103.94;4948762;28;20219;-68
2022/06/10 04:25:28;;;;;;;9.10;2.70;;;;;;;13.41;100.00;102103.78;4949909;28;20441;-68
2022/06/10 04:27:55;;;;;;;5.07;2.50;;;;;;;13.42;100.00;102106.28;4947373;28;20940;-68
2022/06/10 04:30:27;;;;;;;8.10;1.93;;;;;;;13.43;100.00;102110.66;4952951;28;20446;-68
2022/06/10 04:32:53;;;;;;;7.40;2.20;;;;;;;13.23;100.00;102087.97;4953453;28;20469;-68
2022/06/10 04:35:19;;;;;;;9.67;2.00;;;;;;;13.59;100.00;102106.91;4948210;28;20998;-68
2022/06/10 04:37:45;;;;;;;6.40;2.07;;;;;;;13.52;100.00;102112.22;4951299;28;20542;-67
2022/06/10 04:40:18;;;;;;;7.90;3.03;;;;;;;13.56;100.00;102118.06;4950791;28;20446;-68
2022/06/10 04:42:45;;;;;;;6.53;2.27;;;;;;;13.47;100.00;102090.38;4953023;28;20194;-68
2022/06/10 04:45:11;;;;;;;2.63;1.57;;;;;;;13.49;100.00;102093.72;4949149;28;20516;-68
2022/06/10 04:47:36;;;;;;;7.13;2.57;;;;;;;13.48;100.00;102088.50;4947091;28;20446;-68
2022/06/10 04:50:04;;;;;;;8.43;1.83;;;;;;;13.24;100.00;102038.44;4948524;28;21073;-68
2022/06/10 04:52:29;;;;;;;9.07;2.53;;;;;;;13.64;100.00;102096.41;4963093;28;20190;-70
2022/06/10 04:54:54;;;;;;;6.57;1.70;;;;;;;13.41;100.00;102049.88;4950500;28;20656;-67
2022/06/10 04:57:20;;;;;;;5.60;1.70;;;;;;;13.69;100.00;102090.47;4954402;28;20203;-68
2022/06/10 04:59:46;;;;;;;7.03;2.03;;;;;;;13.83;100.00;102097.69;4950028;28;20249;-68
2022/06/10 05:02:12;;;;;;;7.10;2.30;;;;;;;13.96;100.00;102094.28;4945662;28;20447;-68
2022/06/10 05:04:37;;;;;;;6.17;2.10;;;;;;;13.79;100.00;102085.59;4949947;28;20497;-69
2022/06/10 05:07:03;;;;;;;11.10;2.30;;;;;;;13.82;100.00;102097.84;4939032;28;20203;-69
2022/06/10 05:09:29;;;;;;;6.80;1.87;;;;;;;13.27;100.00;101990.41;4938745;28;20297;-69
2022/06/10 05:11:54;;;;;;;6.17;2.13;;;;;;;13.99;100.00;102097.44;4935328;28;20450;-68
2022/06/10 05:14:20;;;;;;;4.97;2.07;;;;;;;13.88;100.00;102079.06;4943339;28;20214;-69
2022/06/10 05:16:46;;;;;;;8.17;2.20;;;;;;;13.85;100.00;102071.34;4956167;28;20207;-68
2022/06/10 05:19:11;;;;;;;5.93;2.00;;;;;;;13.70;100.00;102054.38;4941176;28;20811;-69
2022/06/10 05:21:37;;;;;;;12.23;2.30;;;;;;;14.00;100.00;102098.28;4950342;28;20659;-69
2022/06/10 05:24:03;;;;;;;7.20;2.37;;;;;;;13.70;100.00;102044.41;4944306;28;20222;-69
2022/06/10 05:26:29;;;;;;;7.80;2.03;;;;;;;14.09;100.00;102099.84;4948892;28;20583;-69
2022/06/10 05:28:56;;;;;;;7.57;2.20;;;;;;;13.92;100.00;102058.78;4946352;28;20191;-69
2022/06/10 05:31:21;;;;;;;7.23;2.40;;;;;;;14.21;100.00;102094.78;4946175;28;20981;-69
2022/06/10 05:36:31;;;;;;;6.53;2.10;;;;;;;14.24;100.00;102087.13;4937794;28;20614;-69
2022/06/10 05:38:56;;;;;;;6.00;2.10;;;;;;;14.14;100.00;102065.00;4936482;28;20450;-69
2022/06/10 05:44:06;;;;;;;6.77;1.93;;;;;;;14.13;100.00;102043.63;4946364;28;20240;-69
2022/06/10 05:46:32;;;;;;;9.23;2.37;;;;;;;14.30;100.00;102082.00;4947633;28;20922;-69
2022/06/10 05:48:58;;;;;;;5.90;2.27;;;;;;;14.22;100.00;102064.88;4947042;28;20203;-69
2022/06/10 05:51:24;;;;;;;5.40;2.23;;;;;;;14.49;100.00;102092.13;4946762;28;20195;-69
2022/06/10 05:53:49;;;;;;;6.87;2.47;;;;;;;13.95;100.00;101995.53;4949902;28;20627;-69
2022/06/10 05:56:15;;;;;;;12.10;2.70;;;;;;;14.59;100.00;102089.97;4951766;28;20531;-69
2022/06/10 05:58:40;;;;;;;9.13;2.53;;;;;;;14.60;100.00;102090.78;4950123;28;20196;-68
2022/06/10 06:01:06;;;;;;;5.87;1.93;;;;;;;14.61;100.00;102097.84;4947370;28;20199;-69
2022/06/10 06:03:31;;;;;;;8.17;3.10;;;;;;;14.62;100.00;102091.44;4946791;28;20283;-69
2022/06/10 06:05:57;;;;;;;9.23;2.40;;;;;;;14.44;100.00;102041.41;4946953;28;20187;-68
2022/06/10 06:08:22;;;;;;;7.17;2.53;;;;;;;14.72;100.00;102074.88;4951906;28;20568;-68
2022/06/10 06:10:47;;;;;;;10.20;3.00;;;;;;;14.77;100.00;102078.66;4944294;28;20188;-69
2022/06/10 06:13:13;;;;;;;16.03;3.23;;;;;;;14.95;100.00;102097.09;4944680;28;20222;-68
2022/06/10 06:15:39;;;;;;;6.87;3.10;;;;;;;14.78;100.00;102060.59;4946964;28;20221;-69
2022/06/10 06:18:05;;;;;;;7.10;2.90;;;;;;;15.10;100.00;102087.03;4938476;28;20204;-69
2022/06/10 06:20:31;;;;;;;11.93;2.90;;;;;;;14.82;100.00;102065.41;4941150;28;20452;-69
2022/06/10 06:22:57;;;;;;;8.13;2.87;;;;;;;14.97;100.00;102099.59;4946928;28;20975;-69
2022/06/10 06:25:22;;;;;;;13.20;2.93;;;;;;;14.99;100.00;102102.94;4938459;28;20539;-68
2022/06/10 06:27:49;;;;;;;10.23;3.00;;;;;;;14.95;100.00;102097.09;4946466;28;20203;-68
2022/06/10 06:30:18;;;;;;;11.87;3.50;;;;;;;14.54;100.00;102029.47;4947054;28;20225;-68
2022/06/10 06:32:43;;;;;;;10.17;2.60;;;;;;;14.95;100.00;102094.38;4952196;28;20446;-69
2022/06/10 06:35:08;;;;;;;6.90;2.87;;;;;;;15.03;100.00;102096.09;4946283;28;20561;-68
2022/06/10 06:37:34;;;;;;;9.23;3.27;;;;;;;15.04;100.00;102095.06;4950072;28;20198;-68
2022/06/10 06:39:59;;;;;;;8.53;2.13;;;;;;;14.92;100.00;102054.25;4947381;28;20213;-68
2022/06/10 06:42:25;;;;;;;9.13;3.20;;;;;;;14.89;100.00;102044.66;4946754;28;20210;-67
2022/06/10 06:44:50;;;;;;;8.93;3.10;;;;;;;14.87;100.00;102046.75;4949511;28;20455;-68
2022/06/10 06:47:16;;;;;;;6.27;2.80;;;;;;;15.22;100.00;102103.50;4946724;28;22032;-68
2022/06/10 06:49:42;;;;;;;10.20;2.83;;;;;;;15.31;100.00;102112.28;4949622;28;20626;-69
2022/06/10 06:52:08;;;;;;;8.20;2.80;;;;;;;15.09;100.00;102085.34;4946937;28;20194;-67
2022/06/10 06:54:38;;;;;;;7.47;2.53;;;;;;;15.31;100.00;102110.41;4942140;28;20528;-67
2022/06/10 06:57:04;;;;;;;7.77;2.80;;;;;;;14.63;100.00;101996.72;4937346;28;20868;-67
2022/06/10 06:59:31;;;;;;;6.10;2.73;;;;;;;15.46;100.00;102113.00;4948028;28;20453;-67
2022/06/10 07:01:56;;;;;;;10.70;2.50;;;;;;;15.42;100.00;102114.44;4937291;28;20445;-67
2022/06/10 07:04:22;;;;;;;7.40;2.90;;;;;;;15.47;100.00;102119.22;4945138;28;20482;-67
2022/06/10 07:06:47;;;;;;;7.73;2.40;;;;;;;15.52;100.00;102119.47;4948153;28;20194;-67
2022/06/10 07:09:13;;;;;;;7.70;3.03;;;;;;;15.24;100.00;102085.22;4946075;28;20213;-67
2022/06/10 07:11:39;;;;;;;8.07;2.47;;;;;;;15.50;100.00;102118.81;4948868;28;20187;-67
2022/06/10 07:14:05;;;;;;;7.30;3.27;;;;;;;15.33;100.00;102100.25;4938529;28;20787;-67
2022/06/10 07:16:31;;;;;;;7.17;2.10;;;;;;;15.61;100.00;102120.97;4939258;28;20305;-67
2022/06/10 07:18:56;;;;;;;9.73;2.80;;;;;;;15.69;100.00;102120.00;4950434;28;21018;-67
2022/06/10 07:21:22;;;;;;;5.60;2.30;;;;;;;15.64;100.00;102134.09;4943920;28;20236;-67
2022/06/10 07:23:48;;;;;;;8.63;1.83;;;;;;;15.75;100.00;102132.72;4948724;28;20214;-66
2022/06/10 07:26:15;;;;;;;8.90;2.30;;;;;;;15.73;100.00;102132.91;4942715;28;20207;-67
2022/06/10 07:28:41;;;;;;;5.60;2.30;;;;;;;15.42;100.00;102071.19;4936016;28;22472;-67
2022/06/10 07:31:06;;;;;;;6.53;2.53;;;;;;;15.91;100.00;102140.50;4944368;28;20457;-67
2022/06/10 07:33:35;;;;;;;11.70;3.90;;;;;;;15.90;100.00;102141.50;4945424;28;20223;-67
2022/06/10 07:36:01;;;;;;;9.87;3.23;;;;;;;15.86;100.00;102144.84;4942228;28;20210;-67
2022/06/10 07:38:27;;;;;;;7.63;2.47;;;;;;;15.91;100.00;102147.75;4943678;28;20485;-67
2022/06/10 07:43:38;;;;;;;7.43;3.27;;;;;;;15.92;100.00;102134.03;4947896;28;20257;-68
2022/06/10 07:46:05;;;;;;;11.90;3.10;;;;;;;15.76;100.00;102102.75;4949179;28;20437;-68
2022/06/10 07:48:33;;;;;;;5.33;2.47;;;;;;;16.00;100.00;102133.88;4939366;28;20926;-67
2022/06/10 07:50:58;;;;;;;7.47;3.20;;;;;;;15.96;100.00;102140.69;4949795;28;20474;-68
2022/06/10 07:53:24;;;;;;;9.50;3.30;;;;;;;15.85;100.00;102111.50;4948795;28;20970;-68
2022/06/10 07:55:49;;;;;;;6.53;2.90;;;;;;;15.91;100.00;102143.19;4946264;28;20223;-68
2022/06/10 07:58:19;;;;;;;8.20;2.70;;;;;;;15.97;100.00;102142.38;4945278;28;25290;-68
2022/06/10 08:00:45;;;;;;;6.20;2.30;;;;;;;16.14;100.00;102140.16;4947971;28;20203;-67
2022/06/10 08:03:11;;;;;;;7.27;2.47;;;;;;;15.87;100.00;102101.34;4936522;28;21002;-68
2022/06/10 08:05:37;;;;;;;8.70;2.97;;;;;;;16.08;100.00;102143.66;4941669;28;20192;-68
2022/06/10 08:08:04;;;;;;;8.73;2.70;;;;;;;16.09;100.00;102147.22;4938467;28;20945;-68
2022/06/10 08:10:33;;;;;;;10.57;3.10;;;;;;;16.04;100.00;102153.22;4948858;28;20202;-68
2022/06/10 08:12:59;;;;;;;5.20;2.10;;;;;;;16.13;100.00;102145.75;4944389;28;20486;-68
2022/06/10 08:15:28;;;;;;;6.27;2.47;;;;;;;16.07;100.00;102141.16;4951964;28;20598;-67
2022/06/10 08:17:56;;;;;;;7.90;2.10;;;;;;;16.16;100.00;102151.59;4943139;28;20705;-67
2022/06/10 08:23:12;;;;;;;12.00;2.57;;;;;;;15.97;100.00;102147.81;4946480;28;20555;-66
2022/06/10 08:25:39;;;;;;;6.60;2.67;;;;;;;15.91;100.00;102159.44;4949730;28;20445;-66
2022/06/10 08:28:05;;;;;;;6.70;2.47;;;;;;;16.02;100.00;102152.59;4950126;28;20868;-65
2022/06/10 08:30:30;;;;;;;5.80;2.33;;;;;;;15.53;100.00;102067.88;4951083;28;20461;-67
2022/06/10 08:32:55;;;;;;;7.37;2.63;;;;;;;15.90;100.00;102136.09;4953784;28;20707;-66
2022/06/10 08:35:21;;;;;;;5.00;2.07;;;;;;;15.58;100.00;102070.00;4950066;28;20230;-66
2022/06/10 08:37:46;;;;;;;6.17;2.20;;;;;;;16.19;100.00;102163.88;4951892;28;20273;-66
2022/06/10 08:40:41;;;;;;;5.43;2.80;;;;;;;15.99;100.00;102132.16;4949010;28;20198;-66
2022/06/10 08:43:25;;;;;;;6.40;2.20;;;;;;;16.27;100.00;102174.53;4947163;28;20226;-66
2022/06/10 08:46:20;;;;;;;6.47;2.83;;;;;;;16.16;100.00;102161.59;4948544;28;20450;-66
2022/06/10 08:48:59;;;;;;;7.00;3.30;;;;;;;16.08;100.00;102176.13;4999423;28;20517;-66
2022/06/10 08:51:35;;;;;;;10.17;3.10;;;;;;;16.20;100.00;102171.81;4948003;28;20443;-66
2022/06/10 08:54:25;;;;;;;9.30;3.00;;;;;;;16.11;100.00;102159.47;4946864;28;21026;-67
2022/06/10 08:56:56;;;;;;;9.37;3.60;;;;;;;15.88;100.00;102138.19;4944652;28;21158;-68
2022/06/10 08:59:21;;;;;;;11.30;3.93;;;;;;;16.14;100.00;102166.38;4946790;28;20537;-68
2022/06/10 09:02:11;;;;;;;8.43;3.40;;;;;;;16.18;100.00;102175.75;4953497;28;20442;-68
2022/06/10 09:04:46;;;;;;;6.03;3.77;;;;;;;16.20;100.00;102171.81;5044245;23;20607;-64
2022/06/10 09:07:23;;;;;;;6.10;3.30;;;;;;;16.25;100.00;102180.13;5056597;28;20601;-64
2022/06/10 09:09:48;;;;;;;8.80;3.67;;;;;;;16.23;100.00;102176.00;5063269;28;20522;-65
2022/06/10 09:12:28;;;;;;;6.03;3.40;;;;;;;16.32;100.00;102169.34;5053101;28;20524;-64
2022/06/10 09:15:02;;;;;;;8.43;4.23;;;;;;;16.26;100.00;102173.72;5048294;28;20197;-65
2022/06/10 09:17:37;;;;;;;10.60;4.57;;;;;;;16.30;100.00;102170.59;5049861;28;20512;-63
2022/06/10 09:20:02;;;;;;;11.03;4.40;;;;;;;16.24;100.00;102172.25;5054047;28;20460;-65
2022/06/10 09:22:46;;;;;;;6.77;4.73;;;;;;;16.09;100.00;102174.28;5056105;28;20448;-65
2022/06/10 09:25:33;;;;;;;8.90;4.57;;;;;;;16.01;100.00;102178.00;5056187;28;20208;-65
2022/06/10 09:28:00;;;;;;;8.83;3.80;;;;;;;16.02;100.00;102169.66;5054408;28;20446;-65
2022/06/10 09:30:45;;;;;;;7.97;4.50;;;;;;;15.80;100.00;102135.66;4961153;23;20534;-71
2022/06/10 09:33:23;;;;;;;9.00;4.70;;;;;;;16.15;100.00;102190.53;4940294;28;20451;-72
2022/06/10 09:35:54;;;;;;;7.30;4.10;;;;;;;16.25;100.00;102199.09;4942836;28;20565;-71
2022/06/10 09:38:47;;;;;;;7.97;4.17;;;;;;;16.24;100.00;102186.59;4937890;28;20435;-71
2022/06/10 09:41:39;;;;;;;6.63;4.00;;;;;;;15.61;100.00;102083.09;4942511;28;20446;-71
2022/06/10 09:44:45;;;;;;;7.67;5.03;;;;;;;16.18;100.00;102183.88;4938917;28;20439;-71
2022/06/10 09:47:27;;;;;;;10.20;4.07;;;;;;;16.15;100.00;102157.22;4939806;28;20475;-71
2022/06/10 09:50:36;;;;;;;8.40;4.13;;;;;;;16.19;100.00;102172.00;4937780;29;20495;-72
2022/06/10 09:53:37;;;;;;;7.33;4.17;;;;;;;16.43;100.00;102189.56;5035716;28;20454;-71
2022/06/10 09:56:28;;;;;;;10.30;4.60;;;;;;;16.45;100.00;102193.72;4940923;28;21064;-70
2022/06/10 09:59:15;;;;;;;9.00;4.97;;;;;;;16.39;100.00;102199.97;4952968;28;20937;-71
2022/06/10 10:01:57;;;;;;;9.47;5.70;;;;;;;16.18;100.00;102184.72;4937808;28;20503;-72
2022/06/10 10:04:44;;;;;;;7.20;4.37;;;;;;;16.25;100.00;102190.13;4938705;28;20450;-72
2022/06/10 10:07:18;;;;;;;9.33;4.50;;;;;;;16.28;100.00;102192.44;4931673;28;20814;-71
2022/06/10 10:09:57;;;;;;;8.73;4.43;;;;;;;16.31;100.00;102200.16;4930422;28;20606;-70
2022/06/10 10:12:36;;;;;;;8.17;4.17;;;;;;;16.30;100.00;102209.31;4923093;28;20446;-71
2022/06/10 10:15:17;;;;;;;6.07;4.00;;;;;;;15.86;100.00;102140.25;4936560;28;20434;-71
2022/06/10 10:18:20;;;;;;;6.10;4.00;;;;;;;16.38;100.00;102211.03;4934389;28;20442;-73
2022/06/10 10:20:58;;;;;;;7.10;4.33;;;;;;;16.24;100.00;102200.13;4942207;28;20517;-73
2022/06/10 10:23:34;;;;;;;7.50;4.10;;;;;;;16.32;100.00;102209.97;4939513;28;20507;-72
2022/06/10 10:26:03;;;;;;;12.03;4.73;;;;;;;16.32;100.00;102215.38;4937266;28;20497;-71
2022/06/10 10:28:33;;;;;;;8.13;4.17;;;;;;;16.39;100.00;102212.69;4936631;28;20499;-71
2022/06/10 10:31:17;;;;;;;8.47;4.47;;;;;;;16.42;100.00;102199.56;4940746;28;20526;-71
2022/06/10 10:33:44;;;;;;;8.07;4.17;;;;;;;16.58;100.00;102209.19;4952022;28;21210;-71
2022/06/10 10:36:21;;;;;;;5.80;3.30;;;;;;;16.70;100.00;102204.84;4938682;28;20497;-70
2022/06/10 10:38:48;;;;;;;12.13;5.30;;;;;;;16.64;100.00;102183.16;4939205;28;20458;-70
2022/06/10 10:41:23;;;;;;;10.53;5.77;;;;;;;16.76;100.00;102200.50;4932188;28;21064;-70
2022/06/10 10:43:52;;;;;;;10.40;4.50;;;;;;;16.62;100.00;102168.97;4949661;28;20448;-70
2022/06/10 10:46:29;;;;;;;11.20;4.80;;;;;;;16.84;100.00;102204.91;4939268;28;20450;-71
2022/06/10 10:48:57;;;;;;;10.67;5.70;;;;;;;16.61;100.00;102179.00;4935379;28;20509;-71
2022/06/10 10:51:33;;;;;;;11.07;5.40;;;;;;;16.31;100.00;102128.94;4935869;28;20492;-71
2022/06/10 10:54:07;;;;;;;9.37;4.77;;;;;;;16.19;100.00;102134.94;4933790;28;20445;-70
2022/06/10 10:56:37;;;;;;;12.20;4.90;;;;;;;16.39;100.00;102170.19;4932286;28;20473;-71
2022/06/10 10:59:05;;;;;;;11.23;5.00;;;;;;;16.72;100.00;102212.75;4936749;28;20485;-71
2022/06/10 11:01:45;;;;;;;10.13;4.30;;;;;;;16.80;100.00;102215.28;4940807;28;20442;-71
2022/06/10 11:04:15;;;;;;;7.17;3.83;;;;;;;16.76;100.00;102189.66;4942065;28;20447;-71
2022/06/10 11:06:40;;;;;;;11.50;4.67;;;;;;;16.81;100.00;102202.59;4945763;28;20450;-71
2022/06/10 11:09:21;;;;;;;8.53;5.17;;;;;;;16.76;100.00;102192.38;4943123;28;20832;-71
2022/06/10 11:11:49;;;;;;;10.90;3.90;;;;;;;16.66;100.00;102152.13;4942626;29;20560;-72
2022/06/10 11:14:36;;;;;;;7.57;3.87;;;;;;;16.85;100.00;102174.03;4941658;28;20453;-71
2022/06/10 11:17:11;;;;;;;12.07;5.13;;;;;;;17.08;100.00;102195.31;4940787;28;20466;-71
2022/06/10 11:19:37;;;;;;;11.43;4.40;;;;;;;17.25;100.00;102193.81;4957038;28;20550;-71
2022/06/10 11:22:02;;;;;;;7.40;4.13;;;;;;;17.44;100.00;102189.41;4939689;28;20550;-72
2022/06/10 11:24:36;;;;;;;9.50;4.90;;;;;;;16.91;100.00;102086.47;4940832;28;20554;-72
2022/06/10 11:27:17;;;;;;;8.60;5.07;;;;;;;17.49;100.00;102173.34;4947604;28;20241;-71
2022/06/10 11:29:44;;;;;;;10.50;4.47;;;;;;;17.81;100.00;102166.16;4936502;28;20470;-72
2022/06/10 11:32:23;;;;;;;11.83;5.70;;;;;;;17.70;100.00;102168.69;4928138;28;20474;-71
2022/06/10 11:34:56;;;;;;;7.17;4.17;;;;;;;17.95;100.00;102166.13;4935102;28;20445;-71
2022/06/10 11:37:25;;;;;;;11.40;4.87;;;;;;;17.96;100.00;102165.06;4934777;28;20847;-71
2022/06/10 11:40:05;;;;;;;13.40;5.13;;;;;;;17.86;100.00;102170.97;4935020;28;20872;-72
2022/06/10 11:42:39;;;;;;;9.20;4.60;;;;;;;17.89;100.00;102169.69;4932088;28;20435;-71
2022/06/10 11:45:17;;;;;;;9.90;4.30;;;;;;;17.56;100.00;102125.34;4940405;28;20462;-72
2022/06/10 11:48:10;;;;;;;11.03;4.67;;;;;;;17.87;100.00;102155.50;4932782;29;20573;-72
2022/06/10 11:51:02;;;;;;;9.27;4.73;;;;;;;17.43;100.00;102105.56;4948121;28;20937;-72
2022/06/10 11:53:39;;;;;;;8.83;4.47;;;;;;;17.84;100.00;102167.63;4929961;28;20946;-72
2022/06/10 12:01:52;;;;;;;11.93;3.80;;;;;;;17.67;100.00;102126.53;4936647;28;20465;-71